Terminal Aerodrome Forecast
Issued by NWS

Home | Current Version | Previous Version | Text Only | Print | Product List | Glossary On
Versions: 1 2 3 4 5 6 7 8 9 10 11 12 13
461
FTUS41 KPBZ 260521
TAFBVI
TAF
KBVI 260521Z 2606/2706 13003KT P6SM SCT250
     FM261600 19008KT P6SM VCSH BKN050
     FM261900 23008KT 6SM -SHRA VCTS OVC040CB
     FM262300 27009KT P6SM VCSH BKN015
     FM270200 26007KT P6SM BKN060
      AMD NOT SKED=

USA.gov is the U.S. government's official web portal to all federal, state and local government web resources and services.